Teton, Idaho
Current Conditions -  °F | °C
As of 8:53 PM on Tuesday 21 Oct 2014 (Local Time) from KRXE Reporting Station
Overcast Overcast  
Wind Chill: 41°   Ceiling: 4800
Heat Index: 45°   Visibility: 10mi
Dew Point: 34°   Wind: 7mph
Humidity: 65%   Direction: 220°SW
Pressure: 30.07"   Gusts: NA
Location:  43.89°N, 111.68°W
Report Text: KRXE 220253Z AUTO 22006KT 10SM OVC048 07/01 A3007 RMK AO2 SLP176 T00720011 51018
Loading
Personal Weather Stations






























Interactive Weather Map
Tropical Storm Tracking
New forecast layout! Learn more

10-Day Weather Forecast

Advertisements
Track Severe Weather on mobile